createdAt,value
2018-01-15T00:00:49.808Z,19.10
2018-01-15T00:03:17.995Z,18.40
2018-01-15T00:05:46.909Z,19.97
2018-01-15T00:08:15.036Z,20.07
2018-01-15T00:10:43.169Z,20.87
2018-01-15T00:13:11.320Z,20.50
2018-01-15T00:15:39.459Z,19.73
2018-01-15T00:18:07.612Z,19.63
2018-01-15T00:20:36.527Z,19.73
2018-01-15T00:23:04.663Z,22.60
2018-01-15T00:25:32.848Z,18.20
2018-01-15T00:28:00.997Z,19.17
2018-01-15T00:30:29.117Z,17.17
2018-01-15T00:32:57.264Z,18.57
2018-01-15T00:35:25.411Z,17.70
2018-01-15T00:37:53.549Z,19.73
2018-01-15T00:40:21.689Z,21.30
2018-01-15T00:42:50.608Z,18.97
2018-01-15T00:45:19.504Z,20.60
2018-01-15T00:47:48.408Z,20.20
2018-01-15T00:50:17.316Z,21.70
2018-01-15T00:52:46.223Z,20.10
2018-01-15T00:55:14.369Z,21.03
2018-01-15T00:57:42.510Z,20.40
2018-01-15T01:00:10.648Z,20.57
2018-01-15T01:02:38.785Z,20.50
2018-01-15T01:05:06.939Z,21.97
2018-01-15T01:07:35.879Z,21.70
2018-01-15T01:10:04.051Z,20.80
2018-01-15T01:12:32.176Z,19.60
2018-01-15T01:15:00.323Z,21.87
2018-01-15T01:17:29.244Z,22.13
2018-01-15T01:19:57.588Z,21.23
2018-01-15T01:22:25.720Z,22.60
2018-01-15T01:24:53.851Z,22.00
2018-01-15T01:27:22.016Z,22.13
2018-01-15T01:29:50.139Z,20.33
2018-01-15T01:32:18.294Z,19.20
2018-01-15T01:34:46.416Z,18.60
2018-01-15T01:37:15.324Z,17.77
2018-01-15T01:39:44.233Z,20.30
2018-01-15T01:42:12.363Z,19.03
2018-01-15T01:44:40.514Z,18.20
2018-01-15T01:47:08.659Z,18.57
2018-01-15T01:49:36.798Z,19.20
2018-01-15T01:52:04.975Z,18.87
2018-01-15T01:54:33.108Z,16.83
2018-01-15T01:57:01.374Z,17.63
2018-01-15T01:59:29.516Z,17.00
2018-01-15T02:01:58.406Z,17.73
2018-01-15T02:04:27.367Z,20.63
2018-01-15T02:06:55.503Z,20.63
2018-01-15T02:09:24.419Z,19.97
2018-01-15T02:11:53.332Z,18.90
2018-01-15T02:14:21.469Z,16.90
2018-01-15T02:16:51.139Z,18.73
2018-01-15T02:19:19.279Z,23.57
2018-01-15T02:21:47.421Z,26.47
2018-01-15T02:24:15.576Z,25.20
2018-01-15T02:26:44.485Z,19.40
2018-01-15T02:29:13.420Z,21.10
2018-01-15T02:31:41.549Z,21.67
2018-01-15T02:34:09.695Z,21.67
2018-01-15T02:36:37.905Z,23.77
2018-01-15T02:39:06.062Z,23.10
2018-01-15T02:41:34.210Z,19.10
2018-01-15T02:44:03.108Z,16.60
2018-01-15T02:46:31.231Z,17.70
2018-01-15T02:48:59.415Z,18.03
2018-01-15T02:51:27.537Z,17.83
2018-01-15T02:53:55.696Z,17.30
2018-01-15T02:56:23.816Z,18.07
2018-01-15T02:58:51.970Z,16.03
2018-01-15T03:01:20.102Z,18.33
2018-01-15T03:03:49.180Z,16.93
2018-01-15T03:06:17.313Z,19.90
2018-01-15T03:08:46.199Z,20.23
2018-01-15T03:11:14.342Z,19.23
2018-01-15T03:13:42.500Z,21.20
2018-01-15T03:16:10.651Z,18.90
2018-01-15T03:18:38.856Z,21.23
2018-01-15T03:21:06.987Z,22.80
2018-01-15T03:23:35.132Z,21.70
2018-01-15T03:26:04.036Z,22.97
2018-01-15T03:28:32.943Z,20.27
2018-01-15T03:31:01.853Z,20.67
2018-01-15T03:33:30.765Z,20.10
2018-01-15T03:35:58.905Z,20.60
2018-01-15T03:38:27.044Z,19.37
2018-01-15T03:40:55.203Z,18.47
2018-01-15T03:43:24.639Z,18.93
2018-01-15T03:45:52.778Z,17.80
2018-01-15T03:48:20.941Z,18.30
2018-01-15T03:50:49.077Z,17.53
2018-01-15T03:53:17.980Z,21.83
2018-01-15T03:55:46.134Z,20.70
2018-01-15T03:58:14.252Z,21.03
2018-01-15T04:00:43.163Z,20.43
2018-01-15T04:03:12.074Z,18.03
2018-01-15T04:05:40.965Z,18.40
2018-01-15T04:08:09.880Z,18.00
2018-01-15T04:10:38.760Z,16.97
2018-01-15T04:13:06.904Z,17.23
2018-01-15T04:15:35.038Z,18.73
2018-01-15T04:18:04.688Z,20.03
2018-01-15T04:20:32.839Z,19.90
2018-01-15T04:23:00.969Z,20.57
2018-01-15T04:25:29.119Z,17.70
2018-01-15T04:27:58.024Z,18.93
2018-01-15T04:30:26.929Z,17.30
2018-01-15T04:32:55.832Z,17.33
2018-01-15T04:35:23.975Z,18.23
2018-01-15T04:37:52.883Z,18.57
2018-01-15T04:40:21.036Z,19.20
2018-01-15T04:42:49.173Z,19.17
2018-01-15T04:45:17.306Z,18.73
2018-01-15T04:47:45.453Z,18.47
2018-01-15T04:50:13.628Z,20.93
2018-01-15T04:52:41.756Z,20.00
2018-01-15T04:55:10.635Z,17.83
2018-01-15T04:57:38.780Z,19.50
2018-01-15T05:00:06.908Z,20.40
2018-01-15T05:02:35.825Z,19.07
2018-01-15T05:05:04.731Z,17.80
2018-01-15T05:07:33.676Z,19.20
2018-01-15T05:10:01.808Z,20.30
2018-01-15T05:12:30.719Z,18.67
2018-01-15T05:14:59.623Z,17.33
2018-01-15T05:17:28.531Z,20.70
2018-01-15T05:19:57.424Z,19.43
2018-01-15T05:22:25.584Z,19.73
2018-01-15T05:24:54.192Z,21.87
2018-01-15T05:27:22.390Z,20.13
2018-01-15T05:29:50.480Z,21.70
2018-01-15T05:32:19.388Z,20.77
2018-01-15T05:34:48.329Z,19.43
2018-01-15T05:37:16.460Z,20.30
2018-01-15T05:39:44.616Z,22.20
2018-01-15T05:42:12.757Z,22.33
2018-01-15T05:44:41.660Z,22.50
2018-01-15T05:47:10.571Z,21.90
2018-01-15T05:49:39.508Z,21.53
2018-01-15T05:52:07.643Z,22.07
2018-01-15T05:54:36.543Z,19.40
2018-01-15T05:57:05.488Z,21.00
2018-01-15T05:59:33.641Z,19.00
2018-01-15T06:02:02.551Z,20.50
2018-01-15T06:04:32.048Z,18.73
2018-01-15T06:07:00.105Z,20.93
2018-01-15T06:09:28.257Z,20.80
2018-01-15T06:11:56.408Z,22.40
2018-01-15T06:14:24.541Z,23.20
2018-01-15T06:16:52.688Z,19.80
2018-01-15T06:19:21.618Z,20.80
2018-01-15T06:21:51.298Z,21.90
2018-01-15T06:24:19.419Z,22.73
2018-01-15T06:26:47.563Z,20.00
2018-01-15T06:29:15.712Z,20.43
2018-01-15T06:31:43.860Z,18.67
2018-01-15T06:34:12.787Z,23.83
2018-01-15T06:36:40.932Z,23.23
2018-01-15T06:39:09.099Z,21.07
2018-01-15T06:41:37.393Z,18.53
2018-01-15T06:44:05.529Z,19.83
2018-01-15T06:46:33.713Z,20.77
2018-01-15T06:49:02.593Z,20.60
2018-01-15T06:51:31.530Z,21.80
2018-01-15T06:53:59.675Z,19.57
2018-01-15T06:56:28.616Z,19.10
2018-01-15T06:58:56.767Z,20.83
2018-01-15T07:01:24.899Z,21.53
2018-01-15T07:03:53.052Z,22.93
2018-01-15T07:06:21.971Z,24.27
2018-01-15T07:08:50.882Z,20.70
2018-01-15T07:11:19.080Z,20.23
2018-01-15T07:13:47.208Z,20.07
2018-01-15T07:16:15.357Z,19.23
2018-01-15T07:18:43.492Z,20.43
2018-01-15T07:21:12.089Z,20.27
2018-01-15T07:23:41.136Z,21.47
2018-01-15T07:26:09.309Z,23.60
2018-01-15T07:28:38.212Z,24.30
2018-01-15T07:31:07.123Z,21.73
2018-01-15T07:33:35.277Z,23.87
2018-01-15T07:36:03.412Z,24.40
2018-01-15T07:38:31.536Z,25.27
2018-01-15T07:40:59.692Z,26.50
2018-01-15T07:43:28.624Z,27.20
2018-01-15T07:45:56.769Z,26.43
2018-01-15T07:48:24.920Z,28.20
2018-01-15T07:50:53.064Z,28.37
2018-01-15T07:53:21.202Z,26.93
2018-01-15T07:55:50.096Z,28.87
2018-01-15T07:58:19.030Z,27.10
2018-01-15T08:00:47.946Z,26.03
2018-01-15T08:03:16.085Z,24.70
2018-01-15T08:05:44.295Z,27.57
2018-01-15T08:08:12.447Z,28.23
2018-01-15T08:10:40.571Z,25.23
2018-01-15T08:13:08.740Z,26.60
2018-01-15T08:15:36.855Z,27.90
2018-01-15T08:18:05.018Z,28.60
2018-01-15T08:20:33.897Z,26.37
2018-01-15T08:23:03.054Z,27.60
2018-01-15T08:25:31.945Z,26.70
2018-01-15T08:28:00.134Z,31.23
2018-01-15T08:30:29.050Z,29.20
2018-01-15T08:32:57.197Z,30.87
2018-01-15T08:35:25.333Z,28.67
2018-01-15T08:37:54.044Z,29.90
2018-01-15T08:40:22.183Z,27.10
2018-01-15T08:42:51.229Z,23.43
2018-01-15T08:45:19.370Z,23.83
2018-01-15T08:47:48.313Z,23.30
2018-01-15T08:50:16.473Z,26.30
2018-01-15T08:52:44.607Z,21.63
2018-01-15T08:55:12.771Z,22.23
2018-01-15T08:57:40.905Z,25.20
2018-01-15T09:00:09.060Z,25.30
2018-01-15T09:02:37.184Z,23.30
2018-01-15T09:05:06.080Z,25.47
2018-01-15T09:07:34.989Z,25.60
2018-01-15T09:10:03.900Z,24.10
2018-01-15T09:12:32.812Z,22.17
2018-01-15T09:15:00.990Z,24.40
2018-01-15T09:17:29.207Z,24.43
2018-01-15T09:19:57.324Z,25.97
2018-01-15T09:22:25.482Z,24.40
2018-01-15T09:24:53.621Z,25.60
2018-01-15T09:27:21.788Z,23.80
2018-01-15T09:29:49.950Z,28.23
2018-01-15T09:32:18.838Z,25.87
2018-01-15T09:34:46.997Z,28.50
2018-01-15T09:37:15.917Z,25.97
2018-01-15T09:39:44.841Z,26.93
2018-01-15T09:42:12.972Z,25.80
2018-01-15T09:44:41.136Z,24.40
2018-01-15T09:47:09.268Z,24.67
2018-01-15T09:49:38.195Z,26.00
2018-01-15T09:52:06.325Z,27.30
2018-01-15T09:54:34.453Z,24.77
2018-01-15T09:57:02.591Z,24.53
2018-01-15T09:59:30.728Z,25.03
2018-01-15T10:01:58.870Z,23.83
2018-01-15T10:04:27.000Z,23.77
2018-01-15T10:06:55.190Z,23.97
2018-01-15T10:09:23.320Z,24.90
2018-01-15T10:11:51.472Z,24.20
2018-01-15T10:14:19.592Z,23.97
2018-01-15T10:16:49.256Z,25.40
2018-01-15T10:19:18.153Z,25.20
2018-01-15T10:21:47.062Z,27.37
2018-01-15T10:24:15.207Z,25.50
2018-01-15T10:26:43.368Z,27.60
2018-01-15T10:29:11.954Z,26.60
2018-01-15T10:31:40.107Z,30.03
2018-01-15T10:34:09.035Z,28.37
2018-01-15T10:36:37.165Z,30.77
2018-01-15T10:39:05.328Z,26.63
2018-01-15T10:41:34.305Z,27.70
2018-01-15T10:44:03.219Z,23.67
2018-01-15T10:46:31.360Z,24.50
2018-01-15T10:49:00.276Z,24.63
2018-01-15T10:51:29.185Z,22.73
2018-01-15T10:53:58.104Z,22.70
2018-01-15T10:56:26.262Z,22.83
2018-01-15T10:58:55.184Z,22.53
2018-01-15T11:01:26.955Z,23.23
2018-01-15T11:03:55.884Z,21.47
2018-01-15T11:06:24.141Z,24.67
2018-01-15T11:08:53.072Z,24.40
2018-01-15T11:11:21.221Z,23.20
2018-01-15T11:13:50.136Z,22.50
2018-01-15T11:16:19.102Z,22.83
2018-01-15T11:18:47.237Z,25.03
2018-01-15T11:21:16.163Z,23.77
2018-01-15T11:23:44.304Z,22.27
2018-01-15T11:26:12.431Z,27.10
2018-01-15T11:28:40.593Z,22.97
2018-01-15T11:31:09.499Z,23.87
2018-01-15T11:33:37.652Z,21.03
2018-01-15T11:36:05.820Z,24.10
2018-01-15T11:38:34.027Z,23.03
2018-01-15T11:41:02.908Z,20.80
2018-01-15T11:43:31.055Z,22.33
2018-01-15T11:45:59.192Z,22.70
2018-01-15T11:48:27.340Z,23.07
2018-01-15T11:50:55.490Z,22.00
2018-01-15T11:53:23.626Z,23.73
2018-01-15T11:55:52.529Z,23.40
2018-01-15T11:58:20.721Z,23.27
2018-01-15T12:00:48.866Z,25.00
2018-01-15T12:03:17.750Z,23.03
2018-01-15T12:05:45.907Z,24.60
2018-01-15T12:08:14.075Z,23.77
2018-01-15T12:10:42.700Z,24.90
2018-01-15T12:13:10.844Z,23.40
2018-01-15T12:15:38.997Z,21.07
2018-01-15T12:18:07.201Z,21.50
2018-01-15T12:20:35.283Z,22.63
2018-01-15T12:23:03.424Z,23.23
2018-01-15T12:25:31.575Z,21.33
2018-01-15T12:28:00.448Z,22.40
2018-01-15T12:30:28.587Z,24.63
2018-01-15T12:32:58.135Z,22.97
2018-01-15T12:35:26.275Z,23.80
2018-01-15T12:37:54.640Z,22.80
2018-01-15T12:40:22.769Z,23.53
2018-01-15T12:42:52.130Z,23.33
2018-01-15T12:45:20.270Z,21.60
2018-01-15T12:47:48.401Z,23.73
2018-01-15T12:50:17.510Z,24.40
2018-01-15T12:52:45.628Z,23.37
2018-01-15T12:55:13.772Z,22.07
2018-01-15T12:57:41.928Z,21.80
2018-01-15T13:00:11.704Z,22.63
2018-01-15T13:02:41.391Z,20.43
2018-01-15T13:05:09.549Z,21.07
2018-01-15T13:10:39.308Z,22.77
2018-01-15T13:13:07.452Z,20.43
2018-01-15T13:15:36.360Z,20.67
2018-01-15T13:18:05.302Z,21.03
2018-01-15T13:20:35.265Z,21.97
2018-01-15T13:23:04.328Z,21.20
2018-01-15T13:25:34.458Z,21.77
2018-01-15T13:28:02.924Z,21.73
2018-01-15T13:30:31.064Z,20.23
2018-01-15T13:33:00.620Z,22.43
2018-01-15T13:35:28.766Z,31.47
2018-01-15T13:37:56.920Z,23.90
2018-01-15T13:40:25.036Z,22.03
2018-01-15T13:42:53.187Z,22.70
2018-01-15T13:45:21.322Z,22.17
2018-01-15T13:47:49.474Z,24.23
2018-01-15T13:50:17.623Z,25.03
2018-01-15T13:52:46.543Z,28.60
2018-01-15T13:55:15.477Z,30.27
2018-01-15T13:57:43.594Z,27.27
2018-01-15T14:00:11.752Z,28.13
2018-01-15T14:02:39.890Z,33.77
2018-01-15T14:05:08.041Z,29.20
2018-01-15T14:07:36.446Z,23.63
2018-01-15T14:10:05.220Z,22.40
2018-01-15T14:12:33.372Z,22.53
2018-01-15T14:15:02.305Z,22.20
2018-01-15T14:17:30.467Z,21.60
2018-01-15T14:19:59.375Z,21.07
2018-01-15T14:22:27.520Z,21.10
2018-01-15T14:24:55.654Z,21.87
2018-01-15T14:27:23.809Z,20.20
2018-01-15T14:29:52.712Z,22.10
2018-01-15T14:32:21.718Z,27.47
2018-01-15T14:34:49.841Z,24.40
2018-01-15T14:37:18.030Z,22.10
2018-01-15T14:39:46.920Z,20.90
2018-01-15T14:42:15.068Z,20.47
2018-01-15T14:44:43.198Z,20.87
2018-01-15T14:47:11.352Z,21.60
2018-01-15T14:49:40.248Z,21.03
2018-01-15T14:52:08.387Z,19.00
2018-01-15T14:54:36.564Z,19.37
2018-01-15T14:57:04.700Z,21.17
2018-01-15T14:59:32.836Z,20.33
2018-01-15T15:02:01.011Z,21.70
2018-01-15T15:04:29.731Z,23.47
2018-01-15T15:06:57.880Z,21.77
2018-01-15T15:09:26.816Z,23.33
2018-01-15T15:11:54.958Z,23.87
2018-01-15T15:14:23.094Z,24.80
2018-01-15T15:16:51.976Z,26.57
2018-01-15T15:19:20.120Z,27.60
2018-01-15T15:21:48.292Z,26.23
2018-01-15T15:24:16.448Z,27.13
2018-01-15T15:26:44.593Z,27.33
2018-01-15T15:29:13.514Z,25.20
2018-01-15T15:31:41.690Z,23.53
2018-01-15T15:34:10.636Z,22.90
2018-01-15T15:36:38.790Z,23.23
2018-01-15T15:39:06.922Z,22.80
2018-01-15T15:41:35.114Z,22.83
2018-01-15T15:44:03.233Z,23.50
2018-01-15T15:46:32.170Z,23.03
2018-01-15T15:49:00.336Z,24.70
2018-01-15T15:51:29.264Z,26.80
2018-01-15T15:53:57.431Z,26.40
2018-01-15T15:56:26.344Z,25.80
2018-01-15T15:58:54.496Z,25.50
2018-01-15T16:01:22.657Z,26.50
2018-01-15T16:03:51.564Z,26.70
2018-01-15T16:06:19.716Z,24.10
2018-01-15T16:08:48.826Z,24.80
2018-01-15T16:11:16.965Z,22.67
2018-01-15T16:13:45.887Z,23.83
2018-01-15T16:16:14.785Z,23.17
2018-01-15T16:18:43.708Z,25.30
2018-01-15T16:21:12.595Z,23.60
2018-01-15T16:23:41.535Z,25.33
2018-01-15T16:26:09.659Z,23.43
2018-01-15T16:28:38.428Z,23.97
2018-01-15T16:31:06.556Z,24.03
2018-01-15T16:33:34.732Z,24.57
2018-01-15T16:36:02.870Z,23.13
2018-01-15T16:38:31.020Z,23.00
2018-01-15T16:41:00.647Z,20.33
2018-01-15T16:43:29.576Z,25.97
2018-01-15T16:45:57.729Z,22.60
2018-01-15T16:48:25.871Z,20.30
2018-01-15T16:50:54.032Z,24.60
2018-01-15T16:53:22.194Z,36.47
2018-01-15T16:55:50.362Z,36.90
2018-01-15T16:58:18.565Z,16.30
2018-01-15T17:00:46.716Z,14.33
2018-01-15T17:03:14.826Z,10.63
2018-01-15T17:05:42.997Z,7.70
2018-01-15T17:08:11.137Z,6.83
2018-01-15T17:10:40.040Z,7.00
2018-01-15T17:13:08.190Z,7.50
2018-01-15T17:15:36.313Z,6.40
2018-01-15T17:18:04.508Z,6.57
2018-01-15T17:20:32.654Z,5.33
2018-01-15T17:23:00.819Z,5.77
2018-01-15T17:25:28.958Z,6.27
2018-01-15T17:27:57.126Z,4.93
2018-01-15T17:30:26.028Z,5.53
2018-01-15T17:32:54.949Z,6.57
2018-01-15T17:35:23.890Z,7.03
2018-01-15T17:37:52.831Z,5.90
2018-01-15T17:40:20.979Z,6.10
2018-01-15T17:42:49.135Z,5.23
2018-01-15T17:45:18.107Z,5.17
2018-01-15T17:47:47.893Z,5.83
2018-01-15T17:50:16.045Z,5.90
2018-01-15T17:52:44.199Z,5.50
2018-01-15T17:55:12.329Z,5.00
2018-01-15T17:57:40.482Z,5.03
2018-01-15T18:00:11.670Z,4.90
2018-01-15T18:02:39.792Z,4.80
2018-01-15T18:05:07.945Z,5.63
2018-01-15T18:07:36.069Z,6.30
2018-01-15T18:10:04.222Z,5.57
2018-01-15T18:12:32.399Z,5.40
2018-01-15T18:15:01.330Z,6.30
2018-01-15T18:17:29.459Z,7.23
2018-01-15T18:19:58.385Z,7.03
2018-01-15T18:22:28.089Z,8.67
2018-01-15T18:24:57.021Z,6.90
2018-01-15T18:27:25.175Z,6.77
2018-01-15T18:29:53.497Z,6.17
2018-01-15T18:32:21.650Z,7.70
2018-01-15T18:34:50.760Z,7.30
2018-01-15T18:37:18.908Z,7.87
2018-01-15T18:39:47.055Z,7.80
2018-01-15T18:42:15.191Z,6.87
2018-01-15T18:44:43.363Z,7.40
2018-01-15T18:47:11.520Z,8.17
2018-01-15T18:49:39.676Z,7.63
2018-01-15T18:52:08.594Z,7.00
2018-01-15T18:54:36.791Z,7.80
2018-01-15T18:57:06.329Z,7.30
2018-01-15T18:59:34.466Z,7.53
2018-01-15T19:02:02.615Z,7.70
2018-01-15T19:04:30.765Z,7.87
2018-01-15T19:06:58.924Z,7.33
2018-01-15T19:09:27.063Z,8.53
2018-01-15T19:11:55.229Z,8.80
2018-01-15T19:14:23.376Z,7.40
2018-01-15T19:16:51.559Z,8.33
2018-01-15T19:19:20.301Z,7.63
2018-01-15T19:21:48.471Z,8.43
2018-01-15T19:24:16.608Z,7.47
2018-01-15T19:26:44.763Z,7.83
2018-01-15T19:29:12.927Z,7.43
2018-01-15T19:31:41.051Z,8.00
2018-01-15T19:34:09.221Z,7.50
2018-01-15T19:39:35.487Z,6.03
2018-01-15T19:42:10.000Z,7.03
2018-01-15T19:44:43.714Z,8.10
2018-01-15T19:47:18.405Z,7.67
2018-01-15T19:49:52.204Z,5.97
2018-01-15T19:52:25.995Z,6.83
2018-01-15T19:55:01.632Z,7.40
2018-01-15T19:57:35.382Z,6.30
2018-01-15T20:00:09.946Z,5.63
2018-01-15T20:02:43.717Z,5.53
2018-01-15T20:05:17.527Z,5.80
2018-01-15T20:07:51.388Z,3.80
2018-01-15T20:10:25.923Z,4.50
2018-01-15T20:12:54.862Z,4.13
2018-01-15T20:15:23.796Z,3.80
2018-01-15T20:17:51.932Z,3.00
2018-01-15T20:20:20.120Z,3.10
2018-01-15T20:22:49.222Z,2.53
2018-01-15T20:25:17.369Z,2.10
2018-01-15T20:27:45.525Z,2.30
2018-01-15T20:30:13.721Z,1.87
2018-01-15T20:32:41.866Z,2.07
2018-01-15T20:37:45.999Z,2.30
2018-01-15T20:40:14.156Z,2.07
2018-01-15T20:42:42.302Z,2.20
2018-01-15T20:45:10.562Z,2.20
2018-01-15T20:47:38.693Z,1.80
2018-01-15T20:50:06.846Z,2.17
2018-01-15T20:52:35.436Z,2.30
2018-01-15T20:55:03.575Z,2.90
2018-01-15T20:57:31.758Z,2.23
2018-01-15T20:59:59.926Z,2.13
2018-01-15T21:02:28.104Z,2.10
2018-01-15T21:04:56.253Z,2.03
2018-01-15T21:07:24.435Z,2.43
2018-01-15T21:09:52.567Z,2.30
2018-01-15T21:12:20.740Z,2.70
2018-01-15T21:14:48.882Z,2.23
2018-01-15T21:17:18.562Z,1.97
2018-01-15T21:19:46.710Z,2.20
2018-01-15T21:22:15.625Z,1.87
2018-01-15T21:24:44.532Z,2.00
2018-01-15T21:27:13.433Z,2.07
2018-01-15T21:29:42.340Z,2.70
2018-01-15T21:32:11.248Z,2.47
2018-01-15T21:34:39.396Z,2.20
2018-01-15T21:37:07.548Z,2.23
2018-01-15T21:39:35.693Z,2.30
2018-01-15T21:42:04.588Z,2.40
2018-01-15T21:44:32.737Z,2.53
2018-01-15T21:47:00.904Z,2.87
2018-01-15T21:49:29.045Z,1.97
2018-01-15T21:51:57.178Z,2.00
2018-01-15T21:54:25.409Z,2.60
2018-01-15T21:56:53.511Z,2.60
2018-01-15T21:59:23.082Z,2.50
2018-01-15T22:01:51.226Z,2.30
2018-01-15T22:04:20.192Z,1.90
2018-01-15T22:06:48.360Z,2.10
2018-01-15T22:09:16.527Z,2.03
2018-01-15T22:11:44.710Z,2.43
2018-01-15T22:14:12.888Z,1.90
2018-01-15T22:16:40.991Z,2.17
2018-01-15T22:19:09.129Z,2.23
2018-01-15T22:21:38.062Z,2.10
2018-01-15T22:24:06.194Z,2.40
2018-01-15T22:26:34.362Z,1.90
2018-01-15T22:29:02.492Z,2.33
2018-01-15T22:31:31.382Z,1.90
2018-01-15T22:33:59.534Z,2.10
2018-01-15T22:36:27.652Z,1.60
2018-01-15T22:38:55.788Z,2.20
2018-01-15T22:41:23.915Z,1.97
2018-01-15T22:43:52.094Z,2.00
2018-01-15T22:46:20.228Z,1.53
2018-01-15T22:48:49.166Z,1.83
2018-01-15T22:51:17.300Z,1.70
2018-01-15T22:53:46.192Z,1.57
2018-01-15T22:56:14.332Z,1.70
2018-01-15T22:58:43.698Z,1.50
2018-01-15T23:01:11.827Z,1.67
2018-01-15T23:03:39.959Z,1.30
2018-01-15T23:06:08.100Z,1.80
2018-01-15T23:08:36.231Z,1.57
2018-01-15T23:11:04.382Z,1.60
2018-01-15T23:13:32.520Z,1.73
2018-01-15T23:16:01.418Z,1.77
2018-01-15T23:18:29.561Z,1.60
2018-01-15T23:20:57.681Z,1.40
2018-01-15T23:23:25.840Z,1.43
2018-01-15T23:25:54.004Z,1.60
2018-01-15T23:28:22.125Z,1.90
2018-01-15T23:30:50.291Z,1.67
2018-01-15T23:33:18.415Z,1.37
2018-01-15T23:35:47.336Z,1.57
2018-01-15T23:38:16.231Z,1.87
2018-01-15T23:40:45.155Z,1.77
2018-01-15T23:43:13.288Z,1.67
2018-01-15T23:45:41.434Z,1.70
2018-01-15T23:48:09.555Z,1.90
2018-01-15T23:50:37.729Z,1.60
2018-01-15T23:53:05.873Z,1.50
2018-01-15T23:55:34.792Z,1.53
2018-01-15T23:58:02.908Z,1.40
